sensor_id;sensor_type;location;lat;lon;timestamp;pressure;altitude;pressure_sealevel;temperature;humidity
17764;BME280;22245;52.832;13.816;2022-08-23T00:02:05;101653.09;;;18.34;82.63
17764;BME280;22245;52.832;13.816;2022-08-23T00:05:43;101655.63;;;18.35;82.33
17764;BME280;22245;52.832;13.816;2022-08-23T00:09:05;101640.63;;;18.33;82.82
17764;BME280;22245;52.832;13.816;2022-08-23T00:12:27;101638.59;;;18.35;82.32
17764;BME280;22245;52.832;13.816;2022-08-23T00:15:50;101631.84;;;18.31;82.72
17764;BME280;22245;52.832;13.816;2022-08-23T00:19:14;101631.84;;;18.31;82.36
17764;BME280;22245;52.832;13.816;2022-08-23T00:22:37;101631.34;;;18.27;83.07
17764;BME280;22245;52.832;13.816;2022-08-23T00:26:00;101626.25;;;18.24;82.92
17764;BME280;22245;52.832;13.816;2022-08-23T00:29:24;101620.19;;;18.22;83.04
17764;BME280;22245;52.832;13.816;2022-08-23T00:32:48;101616.09;;;18.18;83.42
17764;BME280;22245;52.832;13.816;2022-08-23T00:36:15;101625.19;;;18.17;82.79
17764;BME280;22245;52.832;13.816;2022-08-23T00:39:38;101616.81;;;18.20;83.45
17764;BME280;22245;52.832;13.816;2022-08-23T00:43:04;101617.63;;;18.20;82.28
17764;BME280;22245;52.832;13.816;2022-08-23T00:46:47;101611.25;;;18.21;82.93
17764;BME280;22245;52.832;13.816;2022-08-23T00:50:31;101605.03;;;18.21;82.17
17764;BME280;22245;52.832;13.816;2022-08-23T00:53:58;101602.63;;;18.18;81.19
17764;BME280;22245;52.832;13.816;2022-08-23T00:57:21;101595.25;;;18.20;82.28
17764;BME280;22245;52.832;13.816;2022-08-23T01:00:43;101596.94;;;18.21;81.89
17764;BME280;22245;52.832;13.816;2022-08-23T01:04:05;101594.41;;;18.28;81.52
17764;BME280;22245;52.832;13.816;2022-08-23T01:07:38;101598.47;;;18.32;81.14
17764;BME280;22245;52.832;13.816;2022-08-23T01:11:08;101602.03;;;18.32;81.78
17764;BME280;22245;52.832;13.816;2022-08-23T01:14:34;101599.47;;;18.31;81.77
17764;BME280;22245;52.832;13.816;2022-08-23T01:18:02;101599.47;;;18.31;82.10
17764;BME280;22245;52.832;13.816;2022-08-23T01:21:31;101589.56;;;18.31;81.31
17764;BME280;22245;52.832;13.816;2022-08-23T01:24:58;101590.56;;;18.30;81.67
17764;BME280;22245;52.832;13.816;2022-08-23T01:28:31;101596.09;;;18.29;81.16
17764;BME280;22245;52.832;13.816;2022-08-23T01:31:53;101593.72;;;18.26;81.10
17764;BME280;22245;52.832;13.816;2022-08-23T01:35:15;101605.69;;;18.23;81.06
17764;BME280;22245;52.832;13.816;2022-08-23T01:38:37;101601.00;;;18.25;81.07
17764;BME280;22245;52.832;13.816;2022-08-23T01:42:00;101612.28;;;18.29;81.29
17764;BME280;22245;52.832;13.816;2022-08-23T01:45:28;101622.25;;;18.28;81.26
17764;BME280;22245;52.832;13.816;2022-08-23T01:48:51;101617.53;;;18.30;80.91
17764;BME280;22245;52.832;13.816;2022-08-23T01:52:14;101612.28;;;18.29;81.19
17764;BME280;22245;52.832;13.816;2022-08-23T01:55:37;101603.50;;;18.27;80.99
17764;BME280;22245;52.832;13.816;2022-08-23T01:59:02;101608.41;;;18.23;81.41
17764;BME280;22245;52.832;13.816;2022-08-23T02:02:30;101611.41;;;18.20;81.92
17764;BME280;22245;52.832;13.816;2022-08-23T02:05:52;101601.09;;;18.15;82.10
17764;BME280;22245;52.832;13.816;2022-08-23T02:09:14;101601.41;;;18.12;81.70
17764;BME280;22245;52.832;13.816;2022-08-23T02:12:38;101601.75;;;18.09;82.19
17764;BME280;22245;52.832;13.816;2022-08-23T02:16:11;101603.06;;;18.05;82.41
17764;BME280;22245;52.832;13.816;2022-08-23T02:19:35;101596.13;;;18.02;82.09
17764;BME280;22245;52.832;13.816;2022-08-23T02:22:58;101598.00;;;18.02;82.20
17764;BME280;22245;52.832;13.816;2022-08-23T02:26:20;101596.31;;;18.01;82.07
17764;BME280;22245;52.832;13.816;2022-08-23T02:29:50;101598.13;;;18.00;82.14
17764;BME280;22245;52.832;13.816;2022-08-23T02:33:14;101596.44;;;17.99;82.19
17764;BME280;22245;52.832;13.816;2022-08-23T02:36:37;101599.13;;;17.99;82.40
17764;BME280;22245;52.832;13.816;2022-08-23T02:39:59;101601.13;;;17.97;82.38
17764;BME280;22245;52.832;13.816;2022-08-23T02:43:22;101604.84;;;17.96;82.45
17764;BME280;22245;52.832;13.816;2022-08-23T02:46:44;101602.59;;;17.91;82.97
17764;BME280;22245;52.832;13.816;2022-08-23T02:50:09;101612.00;;;17.87;82.93
17764;BME280;22245;52.832;13.816;2022-08-23T02:53:32;101613.19;;;17.85;83.32
17764;BME280;22245;52.832;13.816;2022-08-23T02:56:58;101610.50;;;17.85;83.78
17764;BME280;22245;52.832;13.816;2022-08-23T03:00:21;101611.31;;;17.85;83.70
17764;BME280;22245;52.832;13.816;2022-08-23T03:03:43;101615.56;;;17.88;83.81
17764;BME280;22245;52.832;13.816;2022-08-23T03:07:07;101615.56;;;17.88;83.71
17764;BME280;22245;52.832;13.816;2022-08-23T03:10:30;101614.38;;;17.90;83.73
17764;BME280;22245;52.832;13.816;2022-08-23T03:13:54;101613.25;;;17.93;83.27
17764;BME280;22245;52.832;13.816;2022-08-23T03:17:17;101615.75;;;17.94;83.41
17764;BME280;22245;52.832;13.816;2022-08-23T03:20:39;101614.75;;;17.96;83.31
17764;BME280;22245;52.832;13.816;2022-08-23T03:24:05;101612.91;;;17.96;83.39
17764;BME280;22245;52.832;13.816;2022-08-23T03:27:31;101608.84;;;17.92;83.53
17764;BME280;22245;52.832;13.816;2022-08-23T03:31:04;101610.19;;;17.88;83.65
17764;BME280;22245;52.832;13.816;2022-08-23T03:34:35;101611.50;;;17.84;84.28
17764;BME280;22245;52.832;13.816;2022-08-23T03:38:00;101616.19;;;17.82;84.37
17764;BME280;22245;52.832;13.816;2022-08-23T03:41:24;101621.41;;;17.83;84.42
17764;BME280;22245;52.832;13.816;2022-08-23T03:44:46;101633.75;;;17.86;84.29
17764;BME280;22245;52.832;13.816;2022-08-23T03:48:16;101638.13;;;17.87;84.42
17764;BME280;22245;52.832;13.816;2022-08-23T03:51:38;101642.34;;;17.89;83.84
17764;BME280;22245;52.832;13.816;2022-08-23T03:55:00;101642.19;;;17.91;84.03
17764;BME280;22245;52.832;13.816;2022-08-23T03:58:25;101645.56;;;17.93;83.52
17764;BME280;22245;52.832;13.816;2022-08-23T04:01:48;101645.56;;;17.93;83.99
17764;BME280;22245;52.832;13.816;2022-08-23T04:05:13;101635.47;;;17.95;83.60
17764;BME280;22245;52.832;13.816;2022-08-23T04:08:41;101644.41;;;17.96;83.98
17764;BME280;22245;52.832;13.816;2022-08-23T04:12:04;101641.69;;;17.96;83.71
17764;BME280;22245;52.832;13.816;2022-08-23T04:15:38;101642.03;;;17.92;84.03
17764;BME280;22245;52.832;13.816;2022-08-23T04:19:02;101643.34;;;17.88;84.44
17764;BME280;22245;52.832;13.816;2022-08-23T04:22:29;101644.22;;;17.89;84.57
17764;BME280;22245;52.832;13.816;2022-08-23T04:25:51;101643.66;;;17.85;84.68
17764;BME280;22245;52.832;13.816;2022-08-23T04:29:14;101645.66;;;17.83;84.49
17764;BME280;22245;52.832;13.816;2022-08-23T04:32:54;101646.34;;;17.85;84.94
17764;BME280;22245;52.832;13.816;2022-08-23T04:36:17;101646.91;;;17.89;84.98
17764;BME280;22245;52.832;13.816;2022-08-23T04:39:43;101645.91;;;17.90;84.70
17764;BME280;22245;52.832;13.816;2022-08-23T04:43:30;101651.78;;;17.93;85.01
17764;BME280;22245;52.832;13.816;2022-08-23T04:46:52;101657.72;;;17.97;84.58
17764;BME280;22245;52.832;13.816;2022-08-23T04:50:15;101659.41;;;17.98;84.60
17764;BME280;22245;52.832;13.816;2022-08-23T04:53:59;101651.91;;;18.02;84.60
17764;BME280;22245;52.832;13.816;2022-08-23T04:57:32;101656.44;;;18.01;84.57
17764;BME280;22245;52.832;13.816;2022-08-23T05:00:56;101660.00;;;18.02;84.99
17764;BME280;22245;52.832;13.816;2022-08-23T05:04:20;101660.50;;;18.05;84.76
17764;BME280;22245;52.832;13.816;2022-08-23T05:07:44;101667.28;;;18.10;84.64
17764;BME280;22245;52.832;13.816;2022-08-23T05:11:08;101661.88;;;18.10;84.63
17764;BME280;22245;52.832;13.816;2022-08-23T05:14:32;101667.81;;;18.13;84.38
17764;BME280;22245;52.832;13.816;2022-08-23T05:17:54;101671.88;;;18.17;84.33
17764;BME280;22245;52.832;13.816;2022-08-23T05:21:18;101678.81;;;18.20;84.16
17764;BME280;22245;52.832;13.816;2022-08-23T05:24:42;101675.81;;;18.23;84.49
17764;BME280;22245;52.832;13.816;2022-08-23T05:28:04;101686.25;;;18.26;84.32
17764;BME280;22245;52.832;13.816;2022-08-23T05:31:26;101679.00;;;18.27;84.78
17764;BME280;22245;52.832;13.816;2022-08-23T05:34:51;101685.94;;;18.29;84.56
17764;BME280;22245;52.832;13.816;2022-08-23T05:38:13;101684.94;;;18.30;84.75
17764;BME280;22245;52.832;13.816;2022-08-23T05:41:41;101693.84;;;18.31;84.46
17764;BME280;22245;52.832;13.816;2022-08-23T05:45:05;101687.31;;;18.33;84.52
17764;BME280;22245;52.832;13.816;2022-08-23T05:48:27;101688.69;;;18.37;84.14
17764;BME280;22245;52.832;13.816;2022-08-23T05:51:53;101682.66;;;18.44;84.31
17764;BME280;22245;52.832;13.816;2022-08-23T05:55:20;101680.63;;;18.46;84.15
17764;BME280;22245;52.832;13.816;2022-08-23T05:59:14;101691.78;;;18.51;83.47
17764;BME280;22245;52.832;13.816;2022-08-23T06:02:36;101694.34;;;18.52;83.99
17764;BME280;22245;52.832;13.816;2022-08-23T06:05:59;101691.31;;;18.56;84.49
17764;BME280;22245;52.832;13.816;2022-08-23T06:09:21;101692.00;;;18.58;84.42
17764;BME280;22245;52.832;13.816;2022-08-23T06:12:43;101688.81;;;18.62;84.10
17764;BME280;22245;52.832;13.816;2022-08-23T06:16:07;101686.47;;;18.68;83.95
17764;BME280;22245;52.832;13.816;2022-08-23T06:19:35;101685.97;;;18.72;84.16
17764;BME280;22245;52.832;13.816;2022-08-23T06:23:11;101691.59;;;18.79;84.55
17764;BME280;22245;52.832;13.816;2022-08-23T06:26:37;101686.38;;;18.86;84.50
17764;BME280;22245;52.832;13.816;2022-08-23T06:30:00;101702.75;;;18.92;84.60
17764;BME280;22245;52.832;13.816;2022-08-23T06:33:26;101695.75;;;19.00;84.36
17764;BME280;22245;52.832;13.816;2022-08-23T06:36:55;101697.94;;;19.04;84.98
17764;BME280;22245;52.832;13.816;2022-08-23T06:40:35;101705.22;;;19.12;84.51
17764;BME280;22245;52.832;13.816;2022-08-23T06:44:17;101706.25;;;19.19;84.67
17764;BME280;22245;52.832;13.816;2022-08-23T06:47:51;101710.84;;;19.27;84.40
17764;BME280;22245;52.832;13.816;2022-08-23T06:51:21;101721.13;;;19.32;84.52
17764;BME280;22245;52.832;13.816;2022-08-23T06:55:08;101717.94;;;19.36;84.30
17764;BME280;22245;52.832;13.816;2022-08-23T06:58:43;101709.84;;;19.45;84.41
17764;BME280;22245;52.832;13.816;2022-08-23T07:02:24;101716.97;;;19.54;83.17
17764;BME280;22245;52.832;13.816;2022-08-23T07:06:07;101721.38;;;19.63;82.96
17764;BME280;22245;52.832;13.816;2022-08-23T07:09:31;101725.91;;;19.63;83.00
17764;BME280;22245;52.832;13.816;2022-08-23T07:12:53;101718.84;;;19.70;83.22
17764;BME280;22245;52.832;13.816;2022-08-23T07:16:15;101717.16;;;19.77;82.71
17764;BME280;22245;52.832;13.816;2022-08-23T07:19:37;101714.97;;;19.81;83.05
17764;BME280;22245;52.832;13.816;2022-08-23T07:23:00;101710.41;;;19.90;82.57
17764;BME280;22245;52.832;13.816;2022-08-23T07:26:24;101700.81;;;19.95;82.50
17764;BME280;22245;52.832;13.816;2022-08-23T07:29:48;101700.28;;;20.00;81.67
17764;BME280;22245;52.832;13.816;2022-08-23T07:33:10;101704.88;;;20.00;81.52
17764;BME280;22245;52.832;13.816;2022-08-23T07:36:52;101705.53;;;20.10;81.59
17764;BME280;22245;52.832;13.816;2022-08-23T07:40:14;101703.47;;;20.20;80.62
17764;BME280;22245;52.832;13.816;2022-08-23T07:43:44;101715.81;;;20.23;80.16
17764;BME280;22245;52.832;13.816;2022-08-23T07:47:06;101711.91;;;20.25;80.08
17764;BME280;22245;52.832;13.816;2022-08-23T07:50:29;101713.09;;;20.31;79.54
17764;BME280;22245;52.832;13.816;2022-08-23T07:53:53;101710.00;;;20.43;79.67
17764;BME280;22245;52.832;13.816;2022-08-23T07:57:15;101711.69;;;20.52;79.52
17764;BME280;22245;52.832;13.816;2022-08-23T08:01:07;101720.47;;;20.62;79.18
17764;BME280;22245;52.832;13.816;2022-08-23T08:04:36;101710.66;;;20.61;78.91
17764;BME280;22245;52.832;13.816;2022-08-23T08:08:00;101714.03;;;20.63;78.95
17764;BME280;22245;52.832;13.816;2022-08-23T08:11:24;101718.75;;;20.70;78.96
17764;BME280;22245;52.832;13.816;2022-08-23T08:14:54;101705.03;;;20.71;78.88
17764;BME280;22245;52.832;13.816;2022-08-23T08:18:23;101708.72;;;20.78;77.99
17764;BME280;22245;52.832;13.816;2022-08-23T08:22:11;101718.38;;;20.89;77.67
17764;BME280;22245;52.832;13.816;2022-08-23T08:25:41;101716.66;;;20.96;77.35
17764;BME280;22245;52.832;13.816;2022-08-23T08:29:06;101723.69;;;21.06;77.09
17764;BME280;22245;52.832;13.816;2022-08-23T08:32:37;101717.63;;;21.04;76.88
17764;BME280;22245;52.832;13.816;2022-08-23T08:36:31;101718.78;;;21.09;76.81
17764;BME280;22245;52.832;13.816;2022-08-23T08:39:58;101717.22;;;21.15;75.75
17764;BME280;22245;52.832;13.816;2022-08-23T08:43:31;101713.81;;;21.21;76.02
17764;BME280;22245;52.832;13.816;2022-08-23T08:46:55;101717.50;;;21.29;75.55
17764;BME280;22245;52.832;13.816;2022-08-23T08:50:20;101715.44;;;21.31;73.50
17764;BME280;22245;52.832;13.816;2022-08-23T08:53:52;101711.34;;;21.35;72.89
17764;BME280;22245;52.832;13.816;2022-08-23T08:57:21;101704.91;;;21.36;73.25
17764;BME280;22245;52.832;13.816;2022-08-23T09:00:47;101711.00;;;21.38;73.35
17764;BME280;22245;52.832;13.816;2022-08-23T09:04:16;101718.03;;;21.47;73.37
17764;BME280;22245;52.832;13.816;2022-08-23T09:07:45;101717.50;;;21.52;72.93
17764;BME280;22245;52.832;13.816;2022-08-23T09:11:19;101717.50;;;21.52;72.47
17764;BME280;22245;52.832;13.816;2022-08-23T09:14:57;101710.50;;;21.58;72.02
17764;BME280;22245;52.832;13.816;2022-08-23T09:18:24;101719.78;;;21.63;71.41
17764;BME280;22245;52.832;13.816;2022-08-23T09:21:52;101719.50;;;21.58;71.26
17764;BME280;22245;52.832;13.816;2022-08-23T09:25:17;101721.34;;;21.58;71.94
17764;BME280;22245;52.832;13.816;2022-08-23T09:28:54;101721.50;;;21.64;72.19
17764;BME280;22245;52.832;13.816;2022-08-23T09:32:26;101717.44;;;21.60;71.17
17764;BME280;22245;52.832;13.816;2022-08-23T09:36:12;101715.25;;;21.64;71.27
17764;BME280;22245;52.832;13.816;2022-08-23T09:39:40;101718.28;;;21.69;70.42
17764;BME280;22245;52.832;13.816;2022-08-23T09:43:11;101721.94;;;21.76;69.66
17764;BME280;22245;52.832;13.816;2022-08-23T09:46:36;101720.78;;;21.71;68.88
17764;BME280;22245;52.832;13.816;2022-08-23T09:50:09;101712.00;;;21.68;69.08
17764;BME280;22245;52.832;13.816;2022-08-23T09:53:37;101718.44;;;21.67;68.56
17764;BME280;22245;52.832;13.816;2022-08-23T09:57:03;101718.94;;;21.71;67.40
17764;BME280;22245;52.832;13.816;2022-08-23T10:00:28;101715.84;;;21.74;68.06
17764;BME280;22245;52.832;13.816;2022-08-23T10:04:11;101710.56;;;21.81;67.98
17764;BME280;22245;52.832;13.816;2022-08-23T10:07:36;101719.88;;;21.78;67.31
17764;BME280;22245;52.832;13.816;2022-08-23T10:11:13;101705.97;;;21.81;66.30
17764;BME280;22245;52.832;13.816;2022-08-23T10:14:42;101716.72;;;21.90;66.20
17764;BME280;22245;52.832;13.816;2022-08-23T10:18:11;101726.19;;;21.94;65.58
17764;BME280;22245;52.832;13.816;2022-08-23T10:21:41;101724.13;;;21.96;64.27
17764;BME280;22245;52.832;13.816;2022-08-23T10:25:11;101718.16;;;22.01;64.95
17764;BME280;22245;52.832;13.816;2022-08-23T10:28:41;101720.75;;;21.94;64.43
17764;BME280;22245;52.832;13.816;2022-08-23T10:32:33;101722.56;;;22.02;64.74
17764;BME280;22245;52.832;13.816;2022-08-23T10:36:03;101718.16;;;22.01;63.95
17764;BME280;22245;52.832;13.816;2022-08-23T10:39:30;101716.50;;;22.15;64.91
17764;BME280;22245;52.832;13.816;2022-08-23T10:43:05;101720.91;;;22.16;63.40
17764;BME280;22245;52.832;13.816;2022-08-23T10:46:35;101719.50;;;22.20;63.41
17764;BME280;22245;52.832;13.816;2022-08-23T10:50:02;101720.00;;;22.23;62.35
17764;BME280;22245;52.832;13.816;2022-08-23T10:53:32;101713.34;;;22.26;62.86
17764;BME280;22245;52.832;13.816;2022-08-23T10:56:57;101708.13;;;22.39;63.27
17764;BME280;22245;52.832;13.816;2022-08-23T11:00:22;101710.41;;;22.51;62.13
17764;BME280;22245;52.832;13.816;2022-08-23T11:03:55;101719.84;;;22.55;61.46
17764;BME280;22245;52.832;13.816;2022-08-23T11:07:26;101715.19;;;22.49;60.11
17764;BME280;22245;52.832;13.816;2022-08-23T11:10:51;101710.97;;;22.61;61.64
17764;BME280;22245;52.832;13.816;2022-08-23T11:14:32;101717.31;;;22.68;59.90
17764;BME280;22245;52.832;13.816;2022-08-23T11:18:02;101724.72;;;22.75;58.41
17764;BME280;22245;52.832;13.816;2022-08-23T11:21:46;101708.22;;;22.76;58.65
17764;BME280;22245;52.832;13.816;2022-08-23T11:25:39;101715.06;;;22.87;58.33
17764;BME280;22245;52.832;13.816;2022-08-23T11:29:27;101723.47;;;22.92;57.82
17764;BME280;22245;52.832;13.816;2022-08-23T11:33:19;101714.78;;;22.97;57.56
17764;BME280;22245;52.832;13.816;2022-08-23T11:37:29;101716.91;;;23.02;56.22
17764;BME280;22245;52.832;13.816;2022-08-23T11:41:20;101714.84;;;23.04;57.23
17764;BME280;22245;52.832;13.816;2022-08-23T11:44:46;101713.72;;;23.13;57.16
17764;BME280;22245;52.832;13.816;2022-08-23T11:48:16;101711.81;;;23.13;56.96
17764;BME280;22245;52.832;13.816;2022-08-23T11:51:43;101723.59;;;23.21;56.60
17764;BME280;22245;52.832;13.816;2022-08-23T11:55:31;101723.72;;;23.27;57.04
17764;BME280;22245;52.832;13.816;2022-08-23T11:59:08;101725.66;;;23.34;56.28
17764;BME280;22245;52.832;13.816;2022-08-23T12:02:47;101723.22;;;23.39;57.10
17764;BME280;22245;52.832;13.816;2022-08-23T12:09:54;101725.63;;;23.49;56.38
17764;BME280;22245;52.832;13.816;2022-08-23T12:21:16;101722.34;;;23.53;54.95
17764;BME280;22245;52.832;13.816;2022-08-23T12:24:43;101724.00;;;23.54;55.87
17764;BME280;22245;52.832;13.816;2022-08-23T12:28:22;101723.81;;;23.56;56.23
17764;BME280;22245;52.832;13.816;2022-08-23T12:31:56;101724.69;;;23.63;56.33
17764;BME280;22245;52.832;13.816;2022-08-23T12:35:30;101719.72;;;23.67;56.93
17764;BME280;22245;52.832;13.816;2022-08-23T12:38:59;101718.56;;;23.76;56.44
17764;BME280;22245;52.832;13.816;2022-08-23T12:42:26;101714.16;;;23.75;56.09
17764;BME280;22245;52.832;13.816;2022-08-23T12:45:50;101707.66;;;23.76;55.14
17764;BME280;22245;52.832;13.816;2022-08-23T12:49:25;101710.53;;;23.68;55.02
17764;BME280;22245;52.832;13.816;2022-08-23T12:52:55;101708.66;;;23.68;55.80
17764;BME280;22245;52.832;13.816;2022-08-23T12:56:20;101704.31;;;23.74;56.08
17764;BME280;22245;52.832;13.816;2022-08-23T12:59:57;101717.34;;;23.79;56.22
17764;BME280;22245;52.832;13.816;2022-08-23T13:03:39;101710.47;;;23.83;55.55
17764;BME280;22245;52.832;13.816;2022-08-23T13:07:08;101709.88;;;23.88;54.77
17764;BME280;22245;52.832;13.816;2022-08-23T13:10:31;101699.50;;;23.76;55.24
17764;BME280;22245;52.832;13.816;2022-08-23T13:13:53;101703.97;;;23.84;55.98
17764;BME280;22245;52.832;13.816;2022-08-23T13:17:28;101710.59;;;23.75;55.18
17764;BME280;22245;52.832;13.816;2022-08-23T13:21:16;101708.47;;;23.70;55.36
17764;BME280;22245;52.832;13.816;2022-08-23T13:24:41;101711.44;;;23.75;55.50
17764;BME280;22245;52.832;13.816;2022-08-23T13:28:06;101712.16;;;23.84;55.89
17764;BME280;22245;52.832;13.816;2022-08-23T13:31:49;101710.25;;;23.84;55.52
17764;BME280;22245;52.832;13.816;2022-08-23T13:35:36;101704.81;;;23.84;55.66
17764;BME280;22245;52.832;13.816;2022-08-23T13:39:04;101710.91;;;23.87;55.68
17764;BME280;22245;52.832;13.816;2022-08-23T13:42:32;101704.44;;;23.88;55.67
17764;BME280;22245;52.832;13.816;2022-08-23T13:45:56;101697.69;;;23.83;55.97
17764;BME280;22245;52.832;13.816;2022-08-23T13:49:21;101706.13;;;23.89;55.88
17764;BME280;22245;52.832;13.816;2022-08-23T13:52:46;101702.38;;;23.90;55.65
17764;BME280;22245;52.832;13.816;2022-08-23T13:56:29;101703.25;;;23.97;56.23
17764;BME280;22245;52.832;13.816;2022-08-23T13:59:55;101697.88;;;24.04;56.25
17764;BME280;22245;52.832;13.816;2022-08-23T14:03:18;101694.56;;;24.08;55.47
17764;BME280;22245;52.832;13.816;2022-08-23T14:06:40;101692.72;;;24.16;55.65
17764;BME280;22245;52.832;13.816;2022-08-23T14:10:08;101697.00;;;24.25;55.22
17764;BME280;22245;52.832;13.816;2022-08-23T14:13:31;101694.06;;;24.26;55.11
17764;BME280;22245;52.832;13.816;2022-08-23T14:16:56;101699.31;;;24.28;55.32
17764;BME280;22245;52.832;13.816;2022-08-23T14:20:22;101695.81;;;24.34;55.52
17764;BME280;22245;52.832;13.816;2022-08-23T14:24:03;101702.72;;;24.37;56.67
17764;BME280;22245;52.832;13.816;2022-08-23T14:27:25;101696.69;;;24.41;54.99
17764;BME280;22245;52.832;13.816;2022-08-23T14:30:47;101696.38;;;24.30;54.34
17764;BME280;22245;52.832;13.816;2022-08-23T14:34:10;101700.59;;;24.32;54.93
17764;BME280;22245;52.832;13.816;2022-08-23T14:37:32;101701.88;;;24.36;55.75
17764;BME280;22245;52.832;13.816;2022-08-23T14:41:17;101694.78;;;24.42;54.01
17764;BME280;22245;52.832;13.816;2022-08-23T14:44:40;101685.50;;;24.30;54.51
17764;BME280;22245;52.832;13.816;2022-08-23T14:48:02;101699.75;;;24.32;54.64
17764;BME280;22245;52.832;13.816;2022-08-23T14:51:31;101696.22;;;24.38;54.73
17764;BME280;22245;52.832;13.816;2022-08-23T14:54:53;101687.47;;;24.42;54.79
17764;BME280;22245;52.832;13.816;2022-08-23T14:58:15;101683.88;;;24.42;53.87
17764;BME280;22245;52.832;13.816;2022-08-23T15:01:37;101677.22;;;24.45;54.21
17764;BME280;22245;52.832;13.816;2022-08-23T15:04:59;101677.28;;;24.58;54.10
17764;BME280;22245;52.832;13.816;2022-08-23T15:08:23;101658.84;;;24.60;54.44
17764;BME280;22245;52.832;13.816;2022-08-23T15:11:45;101661.19;;;24.63;54.62
17764;BME280;22245;52.832;13.816;2022-08-23T15:15:26;101662.47;;;24.67;53.07
17764;BME280;22245;52.832;13.816;2022-08-23T15:18:50;101660.22;;;24.78;54.09
17764;BME280;22245;52.832;13.816;2022-08-23T15:22:12;101662.16;;;24.91;53.81
17764;BME280;22245;52.832;13.816;2022-08-23T15:25:43;101663.84;;;24.98;54.68
17764;BME280;22245;52.832;13.816;2022-08-23T15:29:05;101652.34;;;25.10;55.06
17764;BME280;22245;52.832;13.816;2022-08-23T15:32:27;101655.94;;;25.17;54.73
17764;BME280;22245;52.832;13.816;2022-08-23T15:35:54;101659.91;;;25.21;54.50
17764;BME280;22245;52.832;13.816;2022-08-23T15:39:16;101657.00;;;25.29;54.51
17764;BME280;22245;52.832;13.816;2022-08-23T15:42:39;101659.13;;;25.41;54.32
17764;BME280;22245;52.832;13.816;2022-08-23T15:46:04;101663.78;;;25.47;53.91
17764;BME280;22245;52.832;13.816;2022-08-23T15:49:26;101661.66;;;25.56;53.60
17764;BME280;22245;52.832;13.816;2022-08-23T15:52:55;101652.66;;;25.55;53.45
17764;BME280;22245;52.832;13.816;2022-08-23T15:56:20;101663.97;;;25.66;53.74
17764;BME280;22245;52.832;13.816;2022-08-23T15:59:45;101659.56;;;25.65;53.01
17764;BME280;22245;52.832;13.816;2022-08-23T16:03:07;101655.78;;;25.66;52.72
17764;BME280;22245;52.832;13.816;2022-08-23T16:06:47;101652.84;;;25.74;51.87
17764;BME280;22245;52.832;13.816;2022-08-23T16:10:09;101646.56;;;25.74;51.80
17764;BME280;22245;52.832;13.816;2022-08-23T16:13:34;101648.03;;;25.83;51.69
17764;BME280;22245;52.832;13.816;2022-08-23T16:17:01;101655.34;;;25.89;51.48
17764;BME280;22245;52.832;13.816;2022-08-23T16:20:23;101654.34;;;25.83;51.26
17764;BME280;22245;52.832;13.816;2022-08-23T16:23:45;101661.88;;;25.81;50.97
17764;BME280;22245;52.832;13.816;2022-08-23T16:27:08;101654.09;;;25.85;51.31
17764;BME280;22245;52.832;13.816;2022-08-23T16:30:29;101654.53;;;25.89;50.90
17764;BME280;22245;52.832;13.816;2022-08-23T16:33:52;101658.72;;;25.98;50.68
17764;BME280;22245;52.832;13.816;2022-08-23T16:37:14;101657.66;;;26.06;50.85
17764;BME280;22245;52.832;13.816;2022-08-23T16:40:36;101657.66;;;26.19;50.38
17764;BME280;22245;52.832;13.816;2022-08-23T16:43:58;101662.06;;;26.27;49.85
17764;BME280;22245;52.832;13.816;2022-08-23T16:47:20;101659.56;;;26.19;50.58
17764;BME280;22245;52.832;13.816;2022-08-23T16:50:43;101663.53;;;26.23;49.96
17764;BME280;22245;52.832;13.816;2022-08-23T16:54:06;101661.63;;;26.30;50.52
17764;BME280;22245;52.832;13.816;2022-08-23T16:57:28;101663.50;;;26.29;50.90
17764;BME280;22245;52.832;13.816;2022-08-23T17:00:50;101663.94;;;26.26;50.05
17764;BME280;22245;52.832;13.816;2022-08-23T17:04:12;101679.69;;;26.04;50.20
17764;BME280;22245;52.832;13.816;2022-08-23T17:07:36;101686.44;;;25.81;50.81
17764;BME280;22245;52.832;13.816;2022-08-23T17:10:58;101688.13;;;25.76;51.66
17764;BME280;22245;52.832;13.816;2022-08-23T17:14:22;101687.47;;;25.67;51.56
17764;BME280;22245;52.832;13.816;2022-08-23T17:17:44;101696.50;;;25.47;51.77
17764;BME280;22245;52.832;13.816;2022-08-23T17:21:07;101705.03;;;25.37;52.29
17764;BME280;22245;52.832;13.816;2022-08-23T17:24:31;101713.63;;;25.34;52.90
17764;BME280;22245;52.832;13.816;2022-08-23T17:27:53;101709.22;;;25.26;52.80
17764;BME280;22245;52.832;13.816;2022-08-23T17:31:15;101712.94;;;25.19;53.39
17764;BME280;22245;52.832;13.816;2022-08-23T17:34:38;101721.53;;;25.09;53.64
17764;BME280;22245;52.832;13.816;2022-08-23T17:38:01;101726.50;;;24.98;54.27
17764;BME280;22245;52.832;13.816;2022-08-23T17:41:25;101727.97;;;24.88;54.45
17764;BME280;22245;52.832;13.816;2022-08-23T17:44:48;101718.47;;;24.77;54.75
17764;BME280;22245;52.832;13.816;2022-08-23T17:48:11;101737.69;;;24.68;54.94
17764;BME280;22245;52.832;13.816;2022-08-23T17:51:34;101733.88;;;24.63;55.60
17764;BME280;22245;52.832;13.816;2022-08-23T17:54:57;101733.81;;;24.56;55.58
17764;BME280;22245;52.832;13.816;2022-08-23T17:58:21;101743.19;;;24.47;55.97
17764;BME280;22245;52.832;13.816;2022-08-23T18:01:47;101753.41;;;24.38;56.56
17764;BME280;22245;52.832;13.816;2022-08-23T18:05:09;101756.28;;;24.30;57.18